sensor_id;sensor_type;location;lat;lon;timestamp;P1;durP1;ratioP1;P2;durP2;ratioP2
35757;SDS011;21879;50.110;18.900;2022-08-01T00:05:19;2.10;;;1.90;;
35757;SDS011;21879;50.110;18.900;2022-08-01T00:15:48;3.50;;;3.10;;
35757;SDS011;21879;50.110;18.900;2022-08-01T00:26:18;5.80;;;3.20;;
35757;SDS011;21879;50.110;18.900;2022-08-01T00:36:47;5.70;;;3.70;;
35757;SDS011;21879;50.110;18.900;2022-08-01T00:47:16;7.80;;;5.60;;
35757;SDS011;21879;50.110;18.900;2022-08-01T00:57:45;10.10;;;6.80;;
35757;SDS011;21879;50.110;18.900;2022-08-01T01:08:32;11.00;;;7.40;;
35757;SDS011;21879;50.110;18.900;2022-08-01T01:19:08;11.50;;;9.10;;
35757;SDS011;21879;50.110;18.900;2022-08-01T01:29:43;8.80;;;7.20;;
35757;SDS011;21879;50.110;18.900;2022-08-01T01:40:25;8.00;;;5.50;;
35757;SDS011;21879;50.110;18.900;2022-08-01T01:50:56;10.50;;;7.90;;
35757;SDS011;21879;50.110;18.900;2022-08-01T02:01:26;7.20;;;5.60;;
35757;SDS011;21879;50.110;18.900;2022-08-01T02:12:17;5.20;;;4.70;;
35757;SDS011;21879;50.110;18.900;2022-08-01T02:22:49;5.90;;;4.50;;
35757;SDS011;21879;50.110;18.900;2022-08-01T02:33:23;8.10;;;5.00;;
35757;SDS011;21879;50.110;18.900;2022-08-01T02:43:58;5.30;;;3.70;;
35757;SDS011;21879;50.110;18.900;2022-08-01T02:54:30;6.70;;;4.80;;
35757;SDS011;21879;50.110;18.900;2022-08-01T03:05:01;5.80;;;4.90;;
35757;SDS011;21879;50.110;18.900;2022-08-01T03:15:35;4.80;;;3.80;;
35757;SDS011;21879;50.110;18.900;2022-08-01T03:26:06;6.80;;;4.70;;
35757;SDS011;21879;50.110;18.900;2022-08-01T03:36:38;7.10;;;4.80;;
35757;SDS011;21879;50.110;18.900;2022-08-01T03:47:14;7.30;;;4.20;;
35757;SDS011;21879;50.110;18.900;2022-08-01T03:57:44;6.30;;;4.60;;
35757;SDS011;21879;50.110;18.900;2022-08-01T04:08:14;6.70;;;4.60;;
35757;SDS011;21879;50.110;18.900;2022-08-01T04:18:44;7.50;;;5.20;;
35757;SDS011;21879;50.110;18.900;2022-08-01T04:29:13;9.00;;;5.60;;
35757;SDS011;21879;50.110;18.900;2022-08-01T04:39:46;6.70;;;4.80;;
35757;SDS011;21879;50.110;18.900;2022-08-01T04:50:18;6.90;;;5.90;;
35757;SDS011;21879;50.110;18.900;2022-08-01T05:00:48;9.10;;;5.90;;
35757;SDS011;21879;50.110;18.900;2022-08-01T05:11:17;7.20;;;6.00;;
35757;SDS011;21879;50.110;18.900;2022-08-01T05:21:47;8.00;;;5.80;;
35757;SDS011;21879;50.110;18.900;2022-08-01T05:32:16;7.10;;;5.60;;
35757;SDS011;21879;50.110;18.900;2022-08-01T05:42:46;6.60;;;6.00;;
35757;SDS011;21879;50.110;18.900;2022-08-01T05:53:14;5.90;;;5.10;;
35757;SDS011;21879;50.110;18.900;2022-08-01T06:03:43;4.30;;;3.90;;
35757;SDS011;21879;50.110;18.900;2022-08-01T06:14:12;4.40;;;3.80;;
35757;SDS011;21879;50.110;18.900;2022-08-01T06:24:41;3.90;;;3.50;;
35757;SDS011;21879;50.110;18.900;2022-08-01T06:35:10;4.00;;;3.40;;
35757;SDS011;21879;50.110;18.900;2022-08-01T06:45:39;3.70;;;3.20;;
35757;SDS011;21879;50.110;18.900;2022-08-01T06:56:08;4.50;;;3.50;;
35757;SDS011;21879;50.110;18.900;2022-08-01T07:06:38;4.50;;;4.10;;
35757;SDS011;21879;50.110;18.900;2022-08-01T07:17:07;3.90;;;3.30;;
35757;SDS011;21879;50.110;18.900;2022-08-01T07:27:36;4.40;;;3.70;;
35757;SDS011;21879;50.110;18.900;2022-08-01T07:38:05;6.30;;;3.90;;
35757;SDS011;21879;50.110;18.900;2022-08-01T07:48:36;6.00;;;3.70;;
35757;SDS011;21879;50.110;18.900;2022-08-01T07:59:05;5.10;;;3.40;;
35757;SDS011;21879;50.110;18.900;2022-08-01T08:09:34;5.20;;;3.60;;
35757;SDS011;21879;50.110;18.900;2022-08-01T08:20:04;7.10;;;3.50;;
35757;SDS011;21879;50.110;18.900;2022-08-01T08:30:34;4.30;;;3.40;;
35757;SDS011;21879;50.110;18.900;2022-08-01T08:41:03;5.80;;;3.40;;
35757;SDS011;21879;50.110;18.900;2022-08-01T08:51:33;4.50;;;3.50;;
35757;SDS011;21879;50.110;18.900;2022-08-01T09:02:05;4.10;;;3.60;;
35757;SDS011;21879;50.110;18.900;2022-08-01T09:12:35;5.80;;;4.10;;
35757;SDS011;21879;50.110;18.900;2022-08-01T09:23:05;5.60;;;5.00;;
35757;SDS011;21879;50.110;18.900;2022-08-01T09:33:55;7.50;;;5.10;;
35757;SDS011;21879;50.110;18.900;2022-08-01T09:44:38;5.40;;;4.90;;
35757;SDS011;21879;50.110;18.900;2022-08-01T09:55:20;5.70;;;4.80;;
35757;SDS011;21879;50.110;18.900;2022-08-01T10:05:49;6.70;;;5.00;;
35757;SDS011;21879;50.110;18.900;2022-08-01T10:16:19;6.80;;;5.40;;
35757;SDS011;21879;50.110;18.900;2022-08-01T10:26:48;6.70;;;5.30;;
35757;SDS011;21879;50.110;18.900;2022-08-01T10:37:30;8.40;;;5.80;;
35757;SDS011;21879;50.110;18.900;2022-08-01T10:48:18;8.50;;;6.60;;
35757;SDS011;21879;50.110;18.900;2022-08-01T10:59:00;6.50;;;5.90;;
35757;SDS011;21879;50.110;18.900;2022-08-01T11:09:39;6.20;;;5.60;;
35757;SDS011;21879;50.110;18.900;2022-08-01T11:20:16;7.30;;;6.60;;
35757;SDS011;21879;50.110;18.900;2022-08-01T11:30:48;8.20;;;6.20;;
35757;SDS011;21879;50.110;18.900;2022-08-01T11:41:23;8.40;;;7.60;;
35757;SDS011;21879;50.110;18.900;2022-08-01T11:52:05;5.90;;;5.10;;
35757;SDS011;21879;50.110;18.900;2022-08-01T12:02:35;10.70;;;6.30;;
35757;SDS011;21879;50.110;18.900;2022-08-01T12:13:06;5.20;;;4.30;;
35757;SDS011;21879;50.110;18.900;2022-08-01T12:23:37;9.40;;;6.20;;
35757;SDS011;21879;50.110;18.900;2022-08-01T12:44:55;7.30;;;6.40;;
35757;SDS011;21879;50.110;18.900;2022-08-01T12:55:25;4.20;;;3.80;;
35757;SDS011;21879;50.110;18.900;2022-08-01T13:05:58;6.10;;;4.50;;
35757;SDS011;21879;50.110;18.900;2022-08-01T13:16:27;5.50;;;4.50;;
35757;SDS011;21879;50.110;18.900;2022-08-01T13:27:22;5.00;;;4.30;;
35757;SDS011;21879;50.110;18.900;2022-08-01T13:37:58;4.60;;;4.10;;
35757;SDS011;21879;50.110;18.900;2022-08-01T13:48:27;4.60;;;4.10;;
35757;SDS011;21879;50.110;18.900;2022-08-01T13:58:58;4.80;;;4.20;;
35757;SDS011;21879;50.110;18.900;2022-08-01T14:09:27;5.10;;;4.60;;
35757;SDS011;21879;50.110;18.900;2022-08-01T14:19:56;5.70;;;4.40;;
35757;SDS011;21879;50.110;18.900;2022-08-01T14:30:26;7.10;;;5.70;;
35757;SDS011;21879;50.110;18.900;2022-08-01T14:40:55;6.10;;;4.90;;
35757;SDS011;21879;50.110;18.900;2022-08-01T14:51:24;4.90;;;3.80;;
35757;SDS011;21879;50.110;18.900;2022-08-01T15:01:58;5.70;;;5.20;;
35757;SDS011;21879;50.110;18.900;2022-08-01T15:12:27;7.10;;;5.20;;
35757;SDS011;21879;50.110;18.900;2022-08-01T15:23:14;5.80;;;5.20;;
35757;SDS011;21879;50.110;18.900;2022-08-01T15:33:43;7.60;;;5.60;;
35757;SDS011;21879;50.110;18.900;2022-08-01T15:44:12;10.30;;;6.80;;
35757;SDS011;21879;50.110;18.900;2022-08-01T15:54:43;6.70;;;6.00;;
35757;SDS011;21879;50.110;18.900;2022-08-01T16:05:12;6.60;;;6.00;;
35757;SDS011;21879;50.110;18.900;2022-08-01T16:15:44;8.70;;;6.10;;
35757;SDS011;21879;50.110;18.900;2022-08-01T16:26:13;6.30;;;5.70;;
35757;SDS011;21879;50.110;18.900;2022-08-01T16:36:52;8.10;;;4.90;;
35757;SDS011;21879;50.110;18.900;2022-08-01T16:47:21;7.10;;;5.80;;
35757;SDS011;21879;50.110;18.900;2022-08-01T16:57:50;7.90;;;5.00;;
35757;SDS011;21879;50.110;18.900;2022-08-01T17:08:19;7.60;;;5.90;;
35757;SDS011;21879;50.110;18.900;2022-08-01T17:18:48;6.80;;;5.70;;
35757;SDS011;21879;50.110;18.900;2022-08-01T17:29:17;6.10;;;5.20;;
35757;SDS011;21879;50.110;18.900;2022-08-01T17:39:46;6.40;;;5.80;;
35757;SDS011;21879;50.110;18.900;2022-08-01T17:50:16;8.50;;;6.40;;
35757;SDS011;21879;50.110;18.900;2022-08-01T18:00:45;6.50;;;5.70;;
35757;SDS011;21879;50.110;18.900;2022-08-01T18:11:14;10.00;;;7.40;;
35757;SDS011;21879;50.110;18.900;2022-08-01T18:21:45;8.30;;;7.20;;
35757;SDS011;21879;50.110;18.900;2022-08-01T18:32:14;7.40;;;6.60;;
35757;SDS011;21879;50.110;18.900;2022-08-01T18:42:43;10.80;;;9.00;;
35757;SDS011;21879;50.110;18.900;2022-08-01T18:53:13;11.70;;;9.10;;
35757;SDS011;21879;50.110;18.900;2022-08-01T19:03:43;11.10;;;9.40;;
35757;SDS011;21879;50.110;18.900;2022-08-01T19:14:11;10.10;;;9.10;;
35757;SDS011;21879;50.110;18.900;2022-08-01T19:24:41;11.00;;;9.90;;
35757;SDS011;21879;50.110;18.900;2022-08-01T19:35:10;11.00;;;9.20;;
35757;SDS011;21879;50.110;18.900;2022-08-01T19:45:41;12.50;;;11.30;;
35757;SDS011;21879;50.110;18.900;2022-08-01T19:56:10;13.10;;;11.80;;
35757;SDS011;21879;50.110;18.900;2022-08-01T20:06:42;12.40;;;11.20;;
35757;SDS011;21879;50.110;18.900;2022-08-01T20:17:11;13.20;;;11.80;;
35757;SDS011;21879;50.110;18.900;2022-08-01T20:27:41;16.40;;;13.80;;
35757;SDS011;21879;50.110;18.900;2022-08-01T20:38:12;16.10;;;14.20;;
35757;SDS011;21879;50.110;18.900;2022-08-01T20:48:47;19.20;;;16.30;;
35757;SDS011;21879;50.110;18.900;2022-08-01T20:59:18;14.20;;;12.70;;
35757;SDS011;21879;50.110;18.900;2022-08-01T21:10:18;12.40;;;11.10;;
35757;SDS011;21879;50.110;18.900;2022-08-01T21:20:51;13.00;;;11.70;;
35757;SDS011;21879;50.110;18.900;2022-08-01T21:31:24;11.40;;;10.20;;
35757;SDS011;21879;50.110;18.900;2022-08-01T21:42:05;10.90;;;9.80;;
35757;SDS011;21879;50.110;18.900;2022-08-01T21:52:43;12.10;;;10.80;;
35757;SDS011;21879;50.110;18.900;2022-08-01T22:03:18;11.40;;;10.20;;
35757;SDS011;21879;50.110;18.900;2022-08-01T22:13:51;11.70;;;10.20;;
35757;SDS011;21879;50.110;18.900;2022-08-01T22:24:23;11.40;;;10.20;;
35757;SDS011;21879;50.110;18.900;2022-08-01T22:34:52;13.90;;;11.30;;
35757;SDS011;21879;50.110;18.900;2022-08-01T22:45:24;13.60;;;12.40;;
35757;SDS011;21879;50.110;18.900;2022-08-01T22:55:59;10.90;;;9.80;;
35757;SDS011;21879;50.110;18.900;2022-08-01T23:06:35;10.00;;;7.90;;
35757;SDS011;21879;50.110;18.900;2022-08-01T23:17:08;8.50;;;7.10;;
35757;SDS011;21879;50.110;18.900;2022-08-01T23:27:52;8.00;;;7.20;;
35757;SDS011;21879;50.110;18.900;2022-08-01T23:38:29;9.30;;;8.30;;
35757;SDS011;21879;50.110;18.900;2022-08-01T23:48:58;8.90;;;7.00;;
35757;SDS011;21879;50.110;18.900;2022-08-01T23:59:27;8.40;;;7.60;;
